Time;durP1;ratioP1;P1;durP2;ratioP2;P2;SDS_P1;SDS_P2;PMS_P1;PMS_P2;Temp;Humidity;BMP_temperature;BMP_pressure;BME280_temperature;BME280_humidity;BME280_pressure;Samples;Min_cycle;Max_cycle;Signal;HPM_P1;HPM_P2
2021/06/13 00:01:29;;;;;;;97.78;9.68;;;;;;;15.97;100.00;100032.13;6315415;22;20057;-85
2021/06/13 00:04:05;;;;;;;112.95;10.20;;;;;;;15.83;100.00;100029.38;6315640;22;20369;-85
2021/06/13 00:06:35;;;;;;;151.13;10.07;;;;;;;15.46;100.00;100030.34;6288688;22;20034;-83
2021/06/13 00:09:12;;;;;;;80.35;11.07;;;;;;;16.05;100.00;100032.56;6287487;22;20473;-83
2021/06/13 00:11:46;;;;;;;48.17;9.02;;;;;;;15.78;100.00;100037.31;6288484;22;20035;-84
2021/06/13 00:14:17;;;;;;;86.10;10.98;;;;;;;15.69;100.00;100029.25;6288371;22;20068;-83
2021/06/13 00:16:46;;;;;;;104.65;9.70;;;;;;;15.66;100.00;100026.81;6330686;22;20003;-84
2021/06/13 00:22:48;;;;;;;113.00;9.85;;;;;;;15.44;100.00;100021.88;6314969;22;20061;-83
2021/06/13 00:25:25;;;;;;;35.40;10.23;;;;;;;15.85;100.00;100023.28;6288023;22;20129;-84
2021/06/13 00:27:51;;;;;;;33.63;10.40;;;;;;;15.76;100.00;100020.34;6287334;22;20010;-83
2021/06/13 00:30:34;;;;;;;25.73;9.52;;;;;;;15.77;100.00;100012.56;6286946;22;20014;-83
2021/06/13 00:33:15;;;;;;;42.35;9.85;;;;;;;16.00;100.00;100007.16;6287929;22;20056;-79
2021/06/13 00:35:59;;;;;;;20.05;8.98;;;;;;;15.96;100.00;100009.94;6287071;22;20036;-82
2021/06/13 00:38:29;;;;;;;27.13;8.80;;;;;;;15.94;100.00;100006.63;6288159;22;20093;-83
2021/06/13 00:41:01;;;;;;;41.75;8.75;;;;;;;15.72;100.00;100016.28;6287582;22;20079;-82
2021/06/13 00:43:40;;;;;;;;;;;;;;;15.91;100.00;100002.47;6315952;22;20019;-82
2021/06/13 00:46:22;;;;;;;26.08;9.57;;;;;;;15.86;100.00;100001.88;6288241;22;19969;-83
2021/06/13 00:48:52;;;;;;;23.48;9.27;;;;;;;15.92;100.00;100004.16;6314857;22;20004;-82
2021/06/13 00:51:17;;;;;;;15.48;9.27;;;;;;;15.92;100.00;99998.19;6287252;22;20386;-82
2021/06/13 00:53:48;;;;;;;13.52;8.35;;;;;;;15.96;100.00;100005.66;6287504;22;20093;-83
2021/06/13 00:56:23;;;;;;;14.13;9.73;;;;;;;16.08;100.00;99999.94;6288316;22;20342;-83
2021/06/13 00:58:58;;;;;;;36.25;11.45;;;;;;;15.86;100.00;99994.19;6314480;22;20004;-84
2021/06/13 01:02:02;;;;;;;39.50;13.07;;;;;;;15.73;100.00;100002.56;6288666;22;20023;-82
2021/06/13 01:08:10;;;;;;;51.22;12.00;;;;;;;15.46;100.00;99992.72;6314862;22;20011;-83
2021/06/13 01:11:14;;;;;;;88.80;13.45;;;;;;;15.61;100.00;99989.41;6287869;22;20099;-83
2021/06/13 01:14:17;;;;;;;68.43;15.30;;;;;;;15.79;100.00;99985.13;6287406;22;20015;-84
2021/06/13 01:20:15;;;;;;;59.80;12.45;;;;;;;15.67;100.00;99982.34;6314499;22;20443;-82
2021/06/13 01:23:18;;;;;;;39.13;12.32;;;;;;;15.82;100.00;99985.00;6287812;22;20007;-82
2021/06/13 01:29:27;;;;;;;30.95;11.85;;;;;;;15.63;100.00;99979.09;6315773;22;20010;-81
2021/06/13 01:32:17;;;;;;;40.85;11.25;;;;;;;15.48;100.00;99977.28;6315286;22;20362;-81
2021/06/13 01:34:55;;;;;;;28.38;11.20;;;;;;;15.38;100.00;99986.28;6287567;22;20205;-82
2021/06/13 01:37:24;;;;;;;33.10;11.80;;;;;;;15.50;100.00;99984.00;6291035;22;20026;-81
2021/06/13 01:39:59;;;;;;;37.83;10.98;;;;;;;15.30;100.00;99986.63;6291533;22;20366;-82
2021/06/13 01:42:28;;;;;;;35.53;11.57;;;;;;;14.97;100.00;99979.69;6287380;22;20019;-82
2021/06/13 01:45:02;;;;;;;34.15;11.50;;;;;;;15.31;100.00;99982.34;6287867;22;20015;-81
2021/06/13 01:47:51;;;;;;;35.17;11.55;;;;;;;15.36;100.00;99983.78;6287349;22;20230;-80
2021/06/13 01:50:30;;;;;;;42.80;11.02;;;;;;;15.12;100.00;99972.13;6287340;22;20003;-81
2021/06/13 01:53:19;;;;;;;39.58;10.52;;;;;;;15.34;100.00;99975.34;6316541;22;20033;-80
2021/06/13 01:55:46;;;;;;;24.40;10.63;;;;;;;15.46;100.00;99972.22;6288835;22;20011;-81
2021/06/13 01:58:30;;;;;;;42.42;11.50;;;;;;;15.38;100.00;99976.03;6288751;22;20072;-80
2021/06/13 02:01:04;;;;;;;33.60;11.43;;;;;;;15.39;100.00;99973.38;6289253;22;20314;-80
2021/06/13 02:03:37;;;;;;;36.42;11.73;;;;;;;15.30;100.00;99973.00;6316424;22;20042;-80
2021/06/13 02:06:38;;;;;;;18.48;11.20;;;;;;;15.28;100.00;99965.38;6289132;22;20344;-80
2021/06/13 02:09:18;;;;;;;43.92;11.43;;;;;;;15.28;100.00;99980.75;6288670;22;20099;-80
2021/06/13 02:12:01;;;;;;;43.70;11.15;;;;;;;15.23;100.00;99980.13;6289166;22;20351;-80
2021/06/13 02:14:30;;;;;;;44.33;11.25;;;;;;;15.08;100.00;99977.44;6316998;22;20030;-80
2021/06/13 02:17:06;;;;;;;19.95;10.65;;;;;;;15.34;100.00;99984.75;6289011;22;20003;-81
2021/06/13 02:20:20;;;;;;;37.95;11.07;;;;;;;15.26;100.00;99981.72;6288474;22;20023;-80
2021/06/13 02:22:50;;;;;;;55.80;10.93;;;;;;;15.11;100.00;99982.44;6289524;22;20366;-80
2021/06/13 02:25:23;;;;;;;24.75;10.70;;;;;;;15.20;100.00;99970.03;6289142;22;20007;-81
2021/06/13 02:28:01;;;;;;;21.08;10.93;;;;;;;14.95;100.00;99968.69;6288722;22;20007;-81
2021/06/13 02:30:40;;;;;;;27.50;9.13;;;;;;;14.90;100.00;99971.44;6288186;22;20003;-80
2021/06/13 02:33:30;;;;;;;16.33;9.40;;;;;;;15.26;100.00;99972.31;6289186;22;20007;-80
2021/06/13 02:36:01;;;;;;;18.92;9.82;;;;;;;15.17;100.00;99982.97;6315889;22;20023;-80
2021/06/13 02:38:41;;;;;;;21.95;10.15;;;;;;;15.20;100.00;99971.75;6288777;22;20388;-81
2021/06/13 02:41:55;;;;;;;16.38;10.15;;;;;;;15.56;100.00;99977.75;6288738;22;20051;-82
2021/06/13 02:44:35;;;;;;;29.10;9.52;;;;;;;15.05;100.00;99977.59;6289384;22;20334;-82
2021/06/13 02:47:04;;;;;;;33.78;9.50;;;;;;;14.87;100.00;99974.16;6288903;22;20011;-81
2021/06/13 02:49:52;;;;;;;35.28;9.68;;;;;;;14.81;100.00;99979.56;6289022;22;20027;-80
2021/06/13 02:52:26;;;;;;;46.28;9.80;;;;;;;14.81;100.00;99966.75;6282611;22;20016;-81
2021/06/13 02:55:16;;;;;;;19.92;9.95;;;;;;;15.10;100.00;99976.50;6284149;22;20129;-80
2021/06/13 02:58:19;;;;;;;75.25;10.50;;;;;;;14.88;100.00;99972.41;6284459;22;20035;-80
2021/06/13 03:00:55;;;;;;;26.88;11.20;;;;;;;15.10;100.00;99968.81;6292102;22;20015;-80
2021/06/13 03:04:01;;;;;;;26.75;12.57;;;;;;;15.14;100.00;99974.63;6284790;22;20015;-80
2021/06/13 03:06:38;;;;;;;22.10;13.23;;;;;;;15.53;100.00;99975.31;6283128;22;19999;-81
2021/06/13 03:09:17;;;;;;;27.65;13.82;;;;;;;15.20;100.00;99967.47;6283598;22;20019;-82
2021/06/13 03:11:45;;;;;;;51.35;13.40;;;;;;;15.00;100.00;99969.28;6285170;22;20084;-82
2021/06/13 03:17:26;;;;;;;22.38;13.27;;;;;;;15.06;100.00;99972.41;6285163;22;20062;-83
2021/06/13 03:20:23;;;;;;;24.52;12.43;;;;;;;15.22;100.00;99977.66;6283004;22;20019;-83
2021/06/13 03:22:56;;;;;;;38.30;14.02;;;;;;;15.02;100.00;99972.63;6283607;22;20398;-82
2021/06/13 03:25:48;;;;;;;26.73;12.80;;;;;;;15.39;100.00;99980.25;6284980;22;20008;-82
2021/06/13 03:28:18;;;;;;;104.68;12.68;;;;;;;14.83;100.00;99977.75;6283624;22;20020;-82
2021/06/13 03:30:54;;;;;;;39.65;12.02;;;;;;;15.30;100.00;99965.31;6283293;22;20023;-83
2021/06/13 03:33:31;;;;;;;40.97;12.82;;;;;;;15.41;100.00;99973.34;6284283;22;20019;-82
2021/06/13 03:36:10;;;;;;;38.38;12.15;;;;;;;15.57;100.00;99971.69;6285068;22;20012;-83
2021/06/13 03:38:57;;;;;;;76.35;11.52;;;;;;;15.25;100.00;99967.28;6284853;22;20346;-83
2021/06/13 03:44:46;;;;;;;58.00;8.38;;;;;;;14.64;100.00;99964.94;6286012;22;20022;-81
2021/06/13 03:47:27;;;;;;;75.95;8.70;;;;;;;14.67;100.00;99958.88;6283377;22;20061;-81
2021/06/13 03:50:06;;;;;;;51.20;9.10;;;;;;;15.09;100.00;99969.72;6284632;22;20125;-81
2021/06/13 03:52:32;;;;;;;32.17;9.45;;;;;;;15.03;100.00;99964.88;6282811;22;20019;-81
2021/06/13 03:55:03;;;;;;;33.10;9.45;;;;;;;14.97;100.00;99959.22;6283110;22;20030;-83
2021/06/13 03:57:54;;;;;;;34.78;9.15;;;;;;;14.98;100.00;99966.81;6282585;22;20027;-82
2021/06/13 04:00:34;;;;;;;18.40;9.07;;;;;;;15.93;100.00;99962.19;6283514;22;20108;-80
2021/06/13 04:03:20;;;;;;;32.13;9.63;;;;;;;15.16;100.00;99968.53;6284029;22;20007;-79
2021/06/13 04:06:13;;;;;;;13.90;9.30;;;;;;;15.58;100.00;99963.13;6283070;22;20008;-79
2021/06/13 04:09:02;;;;;;;23.98;7.60;;;;;;;14.91;100.00;99955.22;6282978;22;20012;-77
2021/06/13 04:11:41;;;;;;;26.77;8.40;;;;;;;15.08;100.00;99957.81;6282599;22;20022;-77
2021/06/13 04:14:31;;;;;;;68.35;9.07;;;;;;;14.67;100.00;99956.31;6282644;22;20015;-77
2021/06/13 04:16:58;;;;;;;42.70;10.70;;;;;;;15.19;100.00;99958.13;6282552;22;20015;-77
2021/06/13 04:19:24;;;;;;;64.10;11.02;;;;;;;15.29;100.00;99954.22;6284322;22;20008;-77
2021/06/13 04:25:14;;;;;;;15.95;8.20;;;;;;;15.13;100.00;99962.72;6283712;22;20105;-77
2021/06/13 04:27:51;;;;;;;53.15;9.27;;;;;;;15.05;100.00;99959.69;6282376;22;20018;-77
2021/06/13 04:30:24;;;;;;;17.60;8.98;;;;;;;15.23;100.00;99967.31;6282544;22;20035;-78
2021/06/13 04:32:50;;;;;;;50.15;9.35;;;;;;;15.26;100.00;99969.75;6281808;22;20011;-75
2021/06/13 04:35:18;;;;;;;48.20;9.73;;;;;;;15.23;100.00;99971.63;6276468;22;20008;-75
2021/06/13 04:37:44;;;;;;;31.88;9.55;;;;;;;15.43;100.00;99969.00;6276682;22;20054;-75
2021/06/13 04:40:16;;;;;;;13.00;8.75;;;;;;;15.69;100.00;99970.28;6276647;22;20000;-74
2021/06/13 04:42:44;;;;;;;23.38;8.35;;;;;;;15.58;100.00;99963.97;6277107;22;20008;-75
2021/06/13 04:45:11;;;;;;;17.17;9.48;;;;;;;15.59;100.00;99973.28;6279933;22;20342;-76
2021/06/13 04:47:44;;;;;;;20.40;8.82;;;;;;;15.66;100.00;99963.56;6277128;22;20370;-74
2021/06/13 04:50:11;;;;;;;19.75;8.90;;;;;;;15.44;100.00;99974.03;6276238;22;20023;-75
2021/06/13 04:52:39;;;;;;;37.42;9.55;;;;;;;15.25;100.00;99969.84;6276051;22;20016;-74
2021/06/13 04:55:11;;;;;;;18.42;8.52;;;;;;;15.59;100.00;99965.59;6278449;22;20104;-75
2021/06/13 04:57:38;;;;;;;22.65;9.30;;;;;;;15.97;100.00;99956.00;6276386;22;20081;-74
2021/06/13 05:00:06;;;;;;;14.65;8.77;;;;;;;15.92;100.00;99962.28;6278696;22;20019;-75
2021/06/13 05:02:39;;;;;;;17.77;8.65;;;;;;;16.11;100.00;99958.72;6278567;22;20007;-75
2021/06/13 05:05:06;;;;;;;12.80;8.93;;;;;;;16.20;100.00;99952.28;6278400;22;20011;-76
2021/06/13 05:07:32;;;;;;;14.55;9.57;;;;;;;15.91;100.00;99947.78;6274943;22;20019;-76
2021/06/13 05:10:00;;;;;;;11.23;9.25;;;;;;;16.29;100.00;99947.50;6276648;22;20026;-77
2021/06/13 05:12:26;;;;;;;10.38;8.75;;;;;;;16.36;100.00;99948.03;6277348;22;20438;-79
2021/06/13 05:14:59;;;;;;;11.38;9.15;;;;;;;16.59;100.00;99946.84;6277549;22;20371;-77
2021/06/13 05:17:25;;;;;;;12.45;8.40;;;;;;;16.52;100.00;99948.91;6276846;22;20068;-77
2021/06/13 05:19:55;;;;;;;8.50;7.68;;;;;;;16.77;100.00;99951.00;6276981;22;20085;-76
2021/06/13 05:22:20;;;;;;;10.50;8.27;;;;;;;16.59;100.00;99946.84;6276933;22;20034;-75
2021/06/13 05:24:47;;;;;;;17.73;8.98;;;;;;;16.77;100.00;99943.31;6276245;22;20382;-74
2021/06/13 05:27:12;;;;;;;15.00;9.10;;;;;;;16.76;100.00;99946.75;6277034;22;20020;-75
2021/06/13 05:29:40;;;;;;;12.20;8.52;;;;;;;16.40;100.00;99954.66;6279525;22;20641;-75
2021/06/13 05:32:07;;;;;;;10.73;8.43;;;;;;;17.12;100.00;99961.03;6278487;22;20096;-75
2021/06/13 05:34:55;;;;;;;13.00;9.05;;;;;;;17.26;100.00;99962.81;6280677;22;20578;-75
2021/06/13 05:37:26;;;;;;;12.68;8.90;;;;;;;16.81;100.00;99957.63;6278694;22;20015;-75
2021/06/13 05:39:57;;;;;;;10.23;9.15;;;;;;;16.77;100.00;99951.00;6278240;22;20035;-76
2021/06/13 05:42:23;;;;;;;11.97;9.13;;;;;;;17.24;100.00;99950.06;6278332;22;20046;-77
2021/06/13 05:44:56;;;;;;;10.40;8.35;;;;;;;16.81;100.00;99953.31;6279214;22;20015;-81
2021/06/13 05:47:28;;;;;;;14.32;9.13;;;;;;;17.29;100.00;99958.34;6279045;22;20010;-77
2021/06/13 05:49:56;;;;;;;13.57;10.05;;;;;;;17.65;100.00;99952.88;6277854;22;20019;-74
2021/06/13 05:52:21;;;;;;;13.38;9.70;;;;;;;17.98;100.00;99956.09;6278199;22;20020;-76
2021/06/13 05:54:47;;;;;;;9.80;8.27;;;;;;;18.49;100.00;99959.91;6277923;22;20014;-80
2021/06/13 05:57:14;;;;;;;10.82;8.70;;;;;;;18.16;100.00;99956.75;6278138;22;20007;-78
2021/06/13 05:59:41;;;;;;;9.07;7.97;;;;;;;18.67;100.00;99950.22;6279485;22;20104;-83
2021/06/13 06:02:07;;;;;;;8.60;7.65;;;;;;;18.75;100.00;99951.41;6279043;22;20008;-74
2021/06/13 06:04:41;;;;;;;7.72;6.93;;;;;;;18.99;100.00;99960.19;6278703;22;20027;-75
2021/06/13 06:07:15;;;;;;;8.98;7.32;;;;;;;18.67;100.00;99956.22;6279496;22;20020;-78
2021/06/13 06:09:51;;;;;;;11.25;8.52;;;;;;;18.44;100.00;99955.97;6279359;22;20015;-79
2021/06/13 06:12:17;;;;;;;10.95;8.45;;;;;;;19.01;100.00;99948.03;6278305;22;20094;-75
2021/06/13 06:14:46;;;;;;;10.85;8.65;;;;;;;19.65;100.00;99949.06;6279314;22;20369;-75
2021/06/13 06:17:13;;;;;;;8.88;7.82;;;;;;;19.09;100.00;99946.72;6279316;22;20027;-76
2021/06/13 06:19:39;;;;;;;9.38;8.45;;;;;;;19.95;100.00;99951.41;6277917;22;20023;-78
2021/06/13 06:22:08;;;;;;;10.82;9.25;;;;;;;19.80;100.00;99943.75;6277708;22;20263;-74
2021/06/13 06:24:34;;;;;;;10.32;8.77;;;;;;;19.33;100.00;99948.59;6277164;22;20184;-77
2021/06/13 06:27:01;;;;;;;12.05;10.50;;;;;;;19.77;100.00;99931.03;6277974;22;20004;-78
2021/06/13 06:29:37;;;;;;;10.82;9.73;;;;;;;18.73;100.00;99942.97;6278416;22;20278;-77
2021/06/13 06:32:21;;;;;;;15.07;12.40;;;;;;;19.69;100.00;99941.03;6278795;22;20043;-78
2021/06/13 06:34:48;;;;;;;12.10;10.60;;;;;;;20.05;100.00;99929.19;6279336;22;20105;-79
2021/06/13 06:37:17;;;;;;;11.63;10.43;;;;;;;20.13;100.00;99932.91;6278411;22;20043;-81
2021/06/13 06:39:43;;;;;;;10.80;9.70;;;;;;;20.39;100.00;99932.00;6277775;22;20031;-83
2021/06/13 06:42:21;;;;;;;11.13;10.02;;;;;;;20.22;100.00;99928.91;6278630;22;20015;-76
2021/06/13 06:44:52;;;;;;;12.85;9.43;;;;;;;20.61;99.94;99916.66;6279727;22;20239;-81
2021/06/13 06:47:19;;;;;;;12.20;10.52;;;;;;;19.73;100.00;99910.69;6278297;22;20183;-79
2021/06/13 06:49:45;;;;;;;11.13;10.02;;;;;;;20.62;100.00;99910.53;6278076;22;20024;-78
2021/06/13 06:52:12;;;;;;;12.18;10.90;;;;;;;20.86;99.56;99907.97;6282334;22;20026;-77
2021/06/13 06:54:45;;;;;;;12.95;11.65;;;;;;;20.61;98.68;99902.91;6283821;22;20056;-79
2021/06/13 06:57:12;;;;;;;13.48;11.30;;;;;;;20.60;99.94;99898.69;6282788;22;20018;-79
2021/06/13 06:59:42;;;;;;;12.40;9.95;;;;;;;21.82;93.16;99894.03;6284769;22;20011;-79
2021/06/13 07:02:13;;;;;;;12.43;10.05;;;;;;;21.78;95.34;99888.22;6311345;22;20022;-84
2021/06/13 07:04:46;;;;;;;;;;;;;;;20.61;97.83;99900.31;6286443;22;20065;-79
2021/06/13 07:07:20;;;;;;;12.05;8.80;;;;;;;21.83;94.09;99893.09;6283389;22;20234;-78
2021/06/13 07:09:48;;;;;;;11.10;9.80;;;;;;;22.36;92.25;99890.59;6284170;22;20388;-78
2021/06/13 07:12:14;;;;;;;12.23;8.98;;;;;;;22.21;92.53;99885.78;6283629;22;20092;-79
2021/06/13 07:14:55;;;;;;;9.82;8.82;;;;;;;22.40;93.69;99881.63;6284810;22;20031;-79
2021/06/13 07:17:25;;;;;;;9.73;8.73;;;;;;;21.89;91.63;99888.25;6283851;22;20015;-79
2021/06/13 07:22:42;;;;;;;9.80;8.48;;;;;;;22.57;89.53;99889.88;6311496;22;20014;-79
2021/06/13 07:25:20;;;;;;;9.63;8.73;;;;;;;22.22;91.93;99884.84;6285066;22;20107;-79
2021/06/13 07:28:04;;;;;;;13.35;8.07;;;;;;;22.51;91.57;99887.75;6283822;22;20342;-78
2021/06/13 07:30:34;;;;;;;10.90;7.50;;;;;;;23.07;86.74;99876.31;6284594;22;20018;-77
2021/06/13 07:33:04;;;;;;;11.27;7.93;;;;;;;22.21;90.53;99880.59;6310761;22;20013;-78
2021/06/13 07:35:31;;;;;;;12.48;8.02;;;;;;;22.23;92.49;99881.31;6283555;22;20417;-75
2021/06/13 07:38:00;;;;;;;115.55;16.95;;;;;;;23.14;87.47;99869.66;6283551;22;20007;-77
2021/06/13 07:40:30;;;;;;;27.60;8.88;;;;;;;22.96;86.96;99855.59;6283016;22;20015;-77
2021/06/13 07:43:19;;;;;;;9.90;7.05;;;;;;;23.24;86.03;99867.97;6284466;22;20007;-78
2021/06/13 07:45:52;;;;;;;8.00;7.30;;;;;;;24.03;84.69;99865.63;6284639;22;20021;-78
2021/06/13 07:48:24;;;;;;;7.13;6.38;;;;;;;23.67;85.01;99860.09;6284173;22;20022;-79
2021/06/13 07:50:49;;;;;;;8.35;6.82;;;;;;;23.60;84.79;99862.38;6284754;22;20003;-79
2021/06/13 07:53:18;;;;;;;7.28;6.45;;;;;;;23.47;83.62;99864.38;6284302;22;20035;-79
2021/06/13 07:55:56;;;;;;;9.20;6.78;;;;;;;22.85;86.30;99869.44;6284567;22;20022;-78
2021/06/13 07:58:28;;;;;;;7.25;6.35;;;;;;;23.37;84.83;99855.69;6284682;22;20030;-77
2021/06/13 08:01:01;;;;;;;7.55;6.57;;;;;;;23.53;85.61;99850.84;6282966;22;20011;-75
2021/06/13 08:03:29;;;;;;;7.47;5.95;;;;;;;23.58;85.25;99848.72;6283759;22;20344;-74
2021/06/13 08:05:56;;;;;;;8.40;6.10;;;;;;;24.11;80.82;99853.78;6284890;22;20227;-75
2021/06/13 08:08:29;;;;;;;8.35;6.13;;;;;;;24.12;83.12;99847.59;6283253;22;20470;-77
2021/06/13 08:11:18;;;;;;;7.63;5.45;;;;;;;24.49;78.97;99841.69;6282490;22;20017;-75
2021/06/13 08:14:03;;;;;;;7.30;5.57;;;;;;;23.11;83.66;99838.81;6310939;22;20019;-76
2021/06/13 08:16:37;;;;;;;6.13;5.53;;;;;;;24.34;80.95;99831.81;6311041;22;20073;-76
2021/06/13 08:19:10;;;;;;;6.10;5.50;;;;;;;24.06;81.54;99834.19;6282821;22;20007;-76
2021/06/13 08:21:37;;;;;;;7.68;5.38;;;;;;;25.06;76.95;99820.09;6310017;22;20111;-77
2021/06/13 08:24:05;;;;;;;6.70;5.00;;;;;;;23.39;81.81;99821.81;6282967;22;20007;-75
2021/06/13 08:27:06;;;;;;;6.82;5.00;;;;;;;24.50;79.26;99832.13;6283117;22;20014;-74
2021/06/13 08:29:34;;;;;;;5.55;4.97;;;;;;;24.83;79.07;99816.97;6283474;22;20590;-74
2021/06/13 08:31:59;;;;;;;7.95;5.15;;;;;;;25.42;76.18;99818.56;6283274;22;20474;-75
2021/06/13 08:34:31;;;;;;;7.93;4.97;;;;;;;25.08;77.74;99818.19;6284063;22;20007;-74
2021/06/13 08:37:01;;;;;;;5.70;5.13;;;;;;;24.60;79.83;99817.34;6283551;22;20019;-81
2021/06/13 08:39:44;;;;;;;5.57;4.90;;;;;;;24.52;77.41;99814.59;6283771;22;20026;-77
2021/06/13 08:42:21;;;;;;;6.43;4.90;;;;;;;24.74;76.35;99804.78;6284371;22;20087;-76
2021/06/13 08:44:52;;;;;;;5.15;4.65;;;;;;;23.60;78.83;99807.84;6285148;22;20047;-76
2021/06/13 08:47:27;;;;;;;7.47;4.65;;;;;;;24.75;76.04;99800.41;6282820;22;20071;-79
2021/06/13 08:49:58;;;;;;;4.80;4.28;;;;;;;25.10;74.92;99805.03;6283580;22;20389;-77
2021/06/13 08:52:24;;;;;;;6.32;4.55;;;;;;;24.87;75.92;99804.50;6278035;22;20406;-76
2021/06/13 08:55:07;;;;;;;5.25;4.85;;;;;;;25.38;74.55;99778.94;6278103;22;20014;-76
2021/06/13 08:57:32;;;;;;;6.20;5.10;;;;;;;25.90;74.13;99784.50;6278555;22;20875;-75
2021/06/13 08:59:59;;;;;;;5.95;5.22;;;;;;;25.78;74.43;99783.88;6278121;22;20008;-76
2021/06/13 09:02:24;;;;;;;7.35;4.90;;;;;;;25.91;71.83;99786.16;6277185;22;20057;-76
2021/06/13 09:04:59;;;;;;;6.28;5.45;;;;;;;25.72;73.39;99776.66;6277788;22;20007;-76
2021/06/13 09:07:29;;;;;;;6.47;5.32;;;;;;;26.49;71.83;99784.88;6278149;22;20023;-76
2021/06/13 09:09:55;;;;;;;6.25;5.10;;;;;;;25.09;72.50;99772.16;6277473;22;20369;-80
2021/06/13 09:12:23;;;;;;;6.40;5.35;;;;;;;26.15;74.14;99763.00;6277833;22;20030;-76
2021/06/13 09:14:54;;;;;;;5.57;5.05;;;;;;;26.29;73.07;99763.31;6279148;22;20011;-76
2021/06/13 09:17:31;;;;;;;7.20;4.82;;;;;;;26.09;71.84;99758.38;6278203;22;20011;-76
2021/06/13 09:20:20;;;;;;;5.68;4.35;;;;;;;26.24;70.30;99756.91;6277975;22;20023;-76
2021/06/13 09:26:08;;;;;;;;;;;;;;;26.09;70.32;99753.97;6280381;22;20082;-75
2021/06/13 09:29:02;;;;;;;5.60;4.60;;;;;;;26.03;70.77;99748.53;6280318;22;20016;-76
2021/06/13 09:32:12;;;;;;;7.22;4.60;;;;;;;25.81;71.32;99734.09;6277898;22;20007;-75
2021/06/13 09:34:38;;;;;;;8.50;4.68;;;;;;;26.48;70.15;99741.50;6277617;22;20092;-78
2021/06/13 09:37:05;;;;;;;5.85;4.40;;;;;;;26.83;68.66;99720.63;6278212;22;20073;-75
2021/06/13 09:39:33;;;;;;;4.65;4.20;;;;;;;27.05;66.11;99714.91;6276540;22;20116;-75
2021/06/13 09:42:09;;;;;;;5.25;3.92;;;;;;;27.84;66.24;99709.38;6278553;22;20017;-75
2021/06/13 09:44:36;;;;;;;4.82;3.63;;;;;;;26.93;62.41;99707.47;6278167;22;20011;-76
2021/06/13 09:47:03;;;;;;;4.18;3.65;;;;;;;27.01;60.84;99697.91;6279406;22;20012;-76
2021/06/13 09:49:50;;;;;;;4.57;3.50;;;;;;;25.98;62.29;99711.66;6277750;22;20004;-76
2021/06/13 09:55:15;;;;;;;4.00;3.33;;;;;;;28.10;59.09;99690.03;6310089;22;20014;-74
2021/06/13 09:58:16;;;;;;;3.83;3.22;;;;;;;27.90;60.43;99704.34;6283526;22;20011;-75
2021/06/13 10:00:44;;;;;;;3.70;3.40;;;;;;;27.38;60.73;99695.84;6282955;22;20035;-74
2021/06/13 10:03:26;;;;;;;4.93;3.30;;;;;;;26.47;60.44;99680.69;6283329;22;20014;-74
2021/06/13 10:06:06;;;;;;;3.75;3.35;;;;;;;26.29;61.75;99679.06;6310217;22;20011;-75
2021/06/13 10:08:33;;;;;;;3.75;3.20;;;;;;;26.51;60.01;99660.34;6282979;22;20100;-82
2021/06/13 10:11:04;;;;;;;9.45;3.67;;;;;;;25.87;60.36;99649.31;6282777;22;20140;-83
2021/06/13 10:13:51;;;;;;;3.80;3.03;;;;;;;26.07;59.48;99666.50;6284192;22;20011;-82
2021/06/13 10:16:30;;;;;;;5.47;3.60;;;;;;;26.03;60.75;99694.59;6313240;22;20011;-76
2021/06/13 10:19:04;;;;;;;5.22;3.67;;;;;;;25.71;62.76;99707.28;6284936;22;20627;-76
2021/06/13 10:21:35;;;;;;;4.00;3.58;;;;;;;25.48;63.17;99690.41;6284957;22;20010;-77
2021/06/13 10:24:17;;;;;;;6.75;3.55;;;;;;;25.49;63.98;99671.22;6285218;22;20026;-77
2021/06/13 10:30:04;;;;;;;7.00;3.70;;;;;;;25.25;62.85;99715.13;6312983;22;20010;-81
2021/06/13 10:32:30;;;;;;;13.63;4.63;;;;;;;23.87;81.71;99761.34;6285255;22;20257;-84
2021/06/13 10:34:58;;;;;;;12.23;5.13;;;;;;;21.92;100.00;99758.56;6284666;22;20011;-75
2021/06/13 10:37:25;;;;;;;12.23;6.13;;;;;;;21.97;99.63;99761.63;6284873;22;20046;-80
2021/06/13 10:39:50;;;;;;;10.98;6.38;;;;;;;21.71;100.00;99791.25;6284960;22;20242;-76
2021/06/13 10:42:19;;;;;;;15.10;6.90;;;;;;;20.80;100.00;99799.06;6312106;22;20019;-77
2021/06/13 10:44:52;;;;;;;15.30;9.15;;;;;;;21.02;100.00;99807.72;6312468;22;20015;-76
2021/06/13 10:47:26;;;;;;;10.85;4.65;;;;;;;20.70;100.00;99807.47;6283197;22;20014;-75
2021/06/13 10:50:09;;;;;;;11.27;4.75;;;;;;;20.58;100.00;99820.44;6284015;22;20004;-73
2021/06/13 10:52:35;;;;;;;7.00;3.35;;;;;;;20.46;100.00;99823.91;6277353;22;20092;-74
2021/06/13 10:55:06;;;;;;;7.40;3.45;;;;;;;20.48;100.00;99827.22;6278068;22;20011;-74
2021/06/13 10:57:34;;;;;;;4.32;3.17;;;;;;;20.71;98.34;99814.28;6277772;22;20354;-75
2021/06/13 11:00:27;;;;;;;5.30;3.22;;;;;;;20.77;96.47;99818.19;6279104;22;20350;-76
2021/06/13 11:03:00;;;;;;;5.00;3.05;;;;;;;21.06;98.88;99826.41;6281749;22;20015;-77
2021/06/13 11:05:46;;;;;;;7.18;3.72;;;;;;;20.98;99.32;99826.13;6283660;22;20012;-77
2021/06/13 11:08:57;;;;;;;4.38;3.17;;;;;;;21.03;100.00;99839.59;6286757;22;20367;-78
2021/06/13 11:11:56;;;;;;;5.47;3.80;;;;;;;20.14;100.00;99851.94;6285966;22;20157;-76
2021/06/13 11:14:27;;;;;;;8.00;4.47;;;;;;;20.04;100.00;99850.94;6284737;22;20043;-75
2021/06/13 11:17:30;;;;;;;11.98;6.07;;;;;;;20.12;100.00;99851.25;6284560;22;20012;-75
2021/06/13 11:23:44;;;;;;;7.45;4.70;;;;;;;19.61;100.00;99854.78;6285705;22;20117;-76
2021/06/13 11:26:38;;;;;;;7.65;4.40;;;;;;;20.10;100.00;99854.84;6285487;22;20010;-76
2021/06/13 11:29:13;;;;;;;6.30;4.38;;;;;;;20.20;100.00;99854.16;6285937;22;20011;-76
2021/06/13 11:31:44;;;;;;;6.63;3.90;;;;;;;20.09;100.00;99841.09;6284866;22;20027;-76
2021/06/13 11:34:19;;;;;;;4.60;4.00;;;;;;;20.05;100.00;99841.41;6286595;22;20013;-76
2021/06/13 11:36:47;;;;;;;6.88;3.75;;;;;;;20.21;100.00;99837.72;6286480;22;20367;-77
2021/06/13 11:39:17;;;;;;;4.13;3.53;;;;;;;20.04;100.00;99832.88;6286756;22;20027;-76
2021/06/13 11:42:07;;;;;;;5.47;3.67;;;;;;;20.41;100.00;99836.31;6285389;22;20395;-76
2021/06/13 11:45:02;;;;;;;6.57;4.30;;;;;;;20.31;100.00;99830.13;6287124;22;20102;-76
2021/06/13 11:47:43;;;;;;;7.53;3.72;;;;;;;20.24;100.00;99831.50;6285821;22;20031;-76
2021/06/13 11:50:34;;;;;;;6.35;4.50;;;;;;;20.47;100.00;99830.72;6284312;22;20026;-76
2021/06/13 11:53:02;;;;;;;7.13;3.47;;;;;;;20.58;100.00;99829.00;6283827;22;20019;-76
2021/06/13 11:55:49;;;;;;;4.65;3.58;;;;;;;20.28;100.00;99828.59;6284539;22;20073;-76
2021/06/13 11:58:19;;;;;;;7.75;3.58;;;;;;;20.04;100.00;99827.72;6284250;22;20121;-76
2021/06/13 12:00:46;;;;;;;7.53;3.75;;;;;;;20.46;100.00;99819.53;6284123;22;20011;-76
2021/06/13 12:03:30;;;;;;;6.25;3.90;;;;;;;20.55;100.00;99807.75;6285638;22;20027;-77
2021/06/13 12:06:04;;;;;;;11.60;4.47;;;;;;;20.65;100.00;99806.97;6285733;22;20348;-76
2021/06/13 12:09:08;;;;;;;7.45;4.97;;;;;;;20.54;100.00;99816.44;6283611;22;20085;-76
2021/06/13 12:15:03;;;;;;;6.45;3.78;;;;;;;20.40;100.00;99816.59;6286007;22;20026;-75
2021/06/13 12:17:29;;;;;;;4.85;3.78;;;;;;;20.51;100.00;99811.47;6283140;22;20035;-75
2021/06/13 12:20:00;;;;;;;6.55;4.00;;;;;;;20.38;100.00;99816.69;6283922;22;20062;-75
2021/06/13 12:22:57;;;;;;;5.65;3.50;;;;;;;20.06;100.00;99810.34;6284979;22;20093;-76
2021/06/13 12:28:27;;;;;;;5.45;3.63;;;;;;;20.04;100.00;99801.06;6285195;22;20104;-75
2021/06/13 12:30:53;;;;;;;4.78;3.70;;;;;;;20.09;100.00;99798.97;6288260;22;20382;-74
2021/06/13 12:33:20;;;;;;;4.40;3.97;;;;;;;20.06;100.00;99799.19;6282828;22;20084;-74
2021/06/13 12:35:50;;;;;;;4.38;3.97;;;;;;;20.01;100.00;99802.09;6284269;22;20366;-74
2021/06/13 12:38:23;;;;;;;5.90;4.07;;;;;;;20.07;100.00;99803.41;6282588;22;20344;-74
2021/06/13 12:40:52;;;;;;;5.65;4.75;;;;;;;20.04;100.00;99799.31;6283613;22;20134;-75
2021/06/13 12:43:43;;;;;;;5.80;4.20;;;;;;;20.10;100.00;99795.47;6283517;22;20392;-76
2021/06/13 12:46:11;;;;;;;7.97;4.30;;;;;;;20.16;100.00;99795.88;6283517;22;20096;-75